Time;durP1;ratioP1;P1;durP2;ratioP2;P2;SDS_P1;SDS_P2;PMS_P1;PMS_P2;Temp;Humidity;BMP_temperature;BMP_pressure;BME280_temperature;BME280_humidity;BME280_pressure;Samples;Min_cycle;Max_cycle;Signal;HPM_P1;HPM_P2
2022/06/01 00:00:47;;;;;;;8.07;7.37;;;12.30;91.50;;;11.27;84.28;97736.28;5025441;28;20561;-75
2022/06/01 00:03:15;;;;;;;7.67;7.07;;;12.40;91.30;;;11.04;85.05;97747.78;5028193;28;20546;-70
2022/06/01 00:05:43;;;;;;;7.47;6.77;;;12.20;91.70;;;11.10;84.49;97727.13;5026708;28;20868;-70
2022/06/01 00:08:10;;;;;;;6.97;6.47;;;12.20;91.70;;;11.15;83.39;97717.31;5008082;28;20450;-73
2022/06/01 00:10:37;;;;;;;7.50;6.20;;;12.20;91.00;;;11.26;82.92;97704.88;5003926;28;20562;-73
2022/06/01 00:13:04;;;;;;;6.10;5.57;;;12.30;90.50;;;11.25;82.83;97716.75;5015955;28;20550;-80
2022/06/01 00:15:33;;;;;;;6.90;6.40;;;12.30;90.30;;;11.18;83.32;97710.63;5019756;28;20497;-80
2022/06/01 00:18:01;;;;;;;6.23;5.63;;;12.30;90.30;;;11.19;83.29;97706.88;5019172;28;20942;-71
2022/06/01 00:20:29;;;;;;;7.33;6.80;;;12.30;90.50;;;11.29;81.67;97712.53;5010091;28;20520;-73
2022/06/01 00:22:57;;;;;;;6.43;5.83;;;12.40;89.80;;;11.12;82.83;97712.34;5024574;28;20456;-71
2022/06/01 00:25:25;;;;;;;6.93;6.43;;;12.30;90.10;;;11.23;82.21;97716.16;5031971;28;20462;-72
2022/06/01 00:27:53;;;;;;;6.30;5.80;;;12.30;90.30;;;11.33;82.30;97704.81;5007755;28;20465;-72
2022/06/01 00:30:22;;;;;;;7.50;5.70;;;12.40;90.00;;;11.36;82.27;97706.25;5025178;28;20498;-68
2022/06/01 00:32:51;;;;;;;6.47;5.93;;;12.40;90.10;;;11.31;82.98;97720.44;5024907;28;20466;-69
2022/06/01 00:35:23;;;;;;;6.73;6.13;;;12.40;90.40;;;11.28;83.37;97710.09;5007274;28;20483;-76
2022/06/01 00:37:50;;;;;;;7.30;6.70;;;12.40;90.60;;;11.28;83.89;97713.59;5030222;28;20536;-72
2022/06/01 00:40:21;;;;;;;7.77;7.07;;;12.40;91.20;;;11.27;84.65;97708.44;5024122;28;20475;-77
2022/06/01 00:42:51;;;;;;;8.00;7.17;;;12.40;91.80;;;11.27;84.97;97714.66;5016638;28;20483;-69
2022/06/01 00:45:23;;;;;;;9.70;6.73;;;12.40;92.00;;;11.20;85.67;97709.31;5007380;28;20552;-75
2022/06/01 00:47:52;;;;;;;7.53;6.93;;;12.30;92.40;;;11.27;85.58;97714.66;5022853;28;20565;-70
2022/06/01 00:50:25;;;;;;;11.10;7.00;;;12.30;92.70;;;11.32;84.87;97720.22;5005696;28;20462;-75
2022/06/01 00:52:58;;;;;;;7.70;7.03;;;12.30;92.70;;;11.22;85.50;97733.44;5024112;28;20461;-70
2022/06/01 00:55:29;;;;;;;8.33;7.67;;;12.30;92.60;;;11.35;84.81;97737.84;5026616;28;20555;-69
2022/06/01 00:58:02;;;;;;;8.53;7.77;;;12.40;92.90;;;11.55;84.65;97737.59;5009285;28;20515;-72
2022/06/01 01:00:32;;;;;;;8.07;7.33;;;12.40;92.40;;;11.45;85.36;97729.22;5021763;28;20898;-81
2022/06/01 01:03:04;;;;;;;7.10;6.60;;;12.50;92.40;;;11.38;85.37;97737.41;5009862;28;20470;-72
2022/06/01 01:05:33;;;;;;;7.83;7.10;;;12.40;92.40;;;11.22;86.78;97733.44;5021272;28;20463;-81
2022/06/01 01:08:05;;;;;;;9.17;8.20;;;12.30;93.40;;;11.36;88.47;97731.38;5029927;28;20470;-70
2022/06/01 01:10:34;;;;;;;8.23;7.40;;;12.40;96.20;;;11.52;87.61;97727.25;5006300;28;20955;-72
2022/06/01 01:13:05;;;;;;;9.20;8.40;;;12.50;95.00;;;11.44;88.11;97714.84;5008300;28;20558;-69
2022/06/01 01:15:36;;;;;;;9.17;8.33;;;12.50;95.20;;;11.37;88.92;97713.28;5020475;28;20460;-78
2022/06/01 01:18:11;;;;;;;9.20;8.50;;;12.50;96.00;;;11.42;88.87;97714.25;5024024;28;20461;-72
2022/06/01 01:20:54;;;;;;;9.33;8.57;;;12.50;95.30;;;11.42;89.89;97710.72;5002761;28;20479;-72
2022/06/01 01:23:31;;;;;;;8.93;8.10;;;12.50;97.20;;;11.37;89.20;97710.59;5024277;28;20464;-72
2022/06/01 01:25:59;;;;;;;8.23;7.53;;;12.50;95.50;;;11.39;90.13;97719.31;5024129;28;20549;-73
2022/06/01 01:28:28;;;;;;;9.50;8.70;;;12.40;97.10;;;11.37;90.78;97708.69;5023046;28;20536;-72
2022/06/01 01:31:04;;;;;;;9.13;8.23;;;12.40;98.70;;;11.31;89.50;97715.88;5003073;28;20450;-70
2022/06/01 01:33:34;;;;;;;8.60;8.00;;;12.40;96.50;;;11.20;89.85;97722.03;5031684;28;20459;-68
2022/06/01 01:36:06;;;;;;;10.00;8.43;;;12.30;96.10;;;11.17;90.25;97717.09;5025339;28;20457;-71
2022/06/01 01:38:41;;;;;;;8.37;7.67;;;12.30;96.10;;;11.09;90.18;97706.56;5008644;28;20537;-70
2022/06/01 01:41:16;;;;;;;8.40;7.80;;;12.30;96.70;;;11.14;89.93;97715.66;5024252;28;20477;-72
2022/06/01 01:43:51;;;;;;;7.93;7.33;;;12.20;96.50;;;10.98;90.29;97725.19;5007718;28;20525;-71
2022/06/01 01:46:17;;;;;;;9.33;8.60;;;12.10;97.10;;;10.89;91.64;97716.53;5024189;28;20465;-71
2022/06/01 01:48:46;;;;;;;9.10;8.37;;;12.00;97.80;;;10.90;91.20;97722.78;5018597;28;20975;-69
2022/06/01 01:51:13;;;;;;;9.47;8.83;;;12.00;98.40;;;10.83;91.44;97722.03;5027438;28;20497;-76
2022/06/01 01:53:41;;;;;;;9.37;8.57;;;11.90;99.00;;;10.83;92.10;97719.31;5027154;28;20461;-70
2022/06/01 01:56:24;;;;;;;10.00;9.00;;;11.90;99.90;;;10.75;92.94;97718.56;5002992;28;20544;-69
2022/06/01 01:59:11;;;;;;;9.60;8.90;;;11.80;99.90;;;10.65;94.08;97723.66;5020738;28;20546;-74
2022/06/01 02:01:48;;;;;;;11.63;10.53;;;11.80;99.90;;;10.67;93.61;97716.16;5024851;28;20453;-69
2022/06/01 02:07:19;;;;;;;11.87;10.70;;;11.80;99.90;;;10.59;94.77;97729.97;5023763;28;20455;-70
2022/06/01 02:12:43;;;;;;;12.13;11.10;;;11.60;99.90;;;10.38;94.90;97699.56;5035417;28;20476;-75
2022/06/01 02:15:19;;;;;;;11.33;10.27;;;11.50;99.90;;;10.44;94.55;97714.09;4993224;28;20459;-70
2022/06/01 02:17:50;;;;;;;11.73;10.13;;;11.50;99.90;;;10.26;95.22;97714.88;5027494;28;20505;-71
2022/06/01 02:20:28;;;;;;;12.40;11.40;;;11.40;99.90;;;10.15;95.88;97717.22;5011645;28;20572;-70
2022/06/01 02:22:56;;;;;;;11.90;10.90;;;11.30;99.90;;;10.10;96.40;97719.78;5029508;28;20942;-69
2022/06/01 02:25:24;;;;;;;10.00;9.30;;;11.20;99.90;;;10.12;96.44;97714.97;5029534;28;20525;-71
2022/06/01 02:27:57;;;;;;;11.47;10.57;;;11.20;99.90;;;10.17;96.47;97714.31;5023128;28;20489;-70
2022/06/01 02:30:27;;;;;;;12.50;11.50;;;11.20;99.90;;;9.88;97.28;97714.72;5026053;28;20468;-69
2022/06/01 02:32:57;;;;;;;11.13;10.23;;;11.10;99.90;;;10.01;97.94;97713.81;5027183;28;20447;-68
2022/06/01 02:35:25;;;;;;;11.60;10.70;;;11.10;99.90;;;10.20;96.66;97719.28;5023828;28;20829;-70
2022/06/01 02:37:56;;;;;;;12.17;11.13;;;11.20;99.90;;;10.29;96.53;97711.72;5028097;28;20466;-69
2022/06/01 02:40:26;;;;;;;11.33;10.13;;;11.30;99.90;;;10.30;96.03;97714.19;5029057;28;21256;-73
2022/06/01 02:42:55;;;;;;;11.80;10.80;;;11.40;99.90;;;10.33;95.53;97721.03;5027635;28;20454;-70
2022/06/01 02:45:25;;;;;;;12.53;11.33;;;11.40;99.90;;;10.35;95.48;97708.97;5008543;28;20827;-71
2022/06/01 02:47:55;;;;;;;12.43;11.33;;;11.40;99.90;;;10.32;95.64;97730.16;5025400;28;20525;-78
2022/06/01 02:50:27;;;;;;;12.20;10.87;;;11.40;99.90;;;10.19;96.49;97725.72;5039530;28;20538;-70
2022/06/01 02:52:55;;;;;;;12.73;11.53;;;11.40;99.90;;;10.16;96.81;97723.44;5026817;28;21342;-69
2022/06/01 02:55:24;;;;;;;13.20;11.73;;;11.30;99.90;;;10.17;96.47;97723.22;5018231;28;21032;-68
2022/06/01 02:57:54;;;;;;;12.70;11.67;;;11.30;99.90;;;10.07;96.37;97728.28;5004361;28;20492;-73
2022/06/01 03:00:26;;;;;;;12.93;11.73;;;11.20;99.90;;;9.94;95.97;97720.31;5023080;28;20466;-69
2022/06/01 03:02:56;;;;;;;12.73;11.73;;;11.20;99.90;;;9.92;97.36;97726.72;5011688;28;20502;-75
2022/06/01 03:05:28;;;;;;;12.10;11.10;;;11.10;99.90;;;9.86;96.82;97726.78;5010733;28;20454;-69
2022/06/01 03:07:55;;;;;;;12.40;11.20;;;11.00;99.90;;;9.90;96.21;97733.41;5022561;28;20481;-70
2022/06/01 03:10:22;;;;;;;12.97;11.80;;;11.00;99.90;;;9.90;96.14;97728.00;5031002;28;20461;-70
2022/06/01 03:12:50;;;;;;;13.93;12.73;;;11.00;99.90;;;9.97;96.65;97731.47;5020004;28;20458;-69
2022/06/01 03:15:21;;;;;;;12.90;11.60;;;11.10;99.90;;;10.05;95.62;97727.69;5008556;28;20894;-70
2022/06/01 03:17:49;;;;;;;11.80;10.80;;;11.10;99.90;;;10.09;95.99;97728.91;5014519;28;20452;-77
2022/06/01 03:20:19;;;;;;;10.90;10.03;;;11.20;99.90;;;10.15;95.18;97728.03;5009567;28;20845;-71
2022/06/01 03:22:47;;;;;;;11.87;10.40;;;11.20;99.90;;;10.07;95.44;97730.97;5012220;28;20473;-68
2022/06/01 03:25:18;;;;;;;12.63;11.33;;;11.20;99.90;;;9.95;95.80;97730.06;5020916;28;20829;-76
2022/06/01 03:27:46;;;;;;;12.77;11.43;;;11.20;99.90;;;10.04;95.41;97734.13;5012839;28;20513;-72
2022/06/01 03:30:18;;;;;;;11.37;10.47;;;11.20;99.90;;;10.15;95.29;97733.41;5021617;28;20468;-72
2022/06/01 03:32:45;;;;;;;12.03;11.10;;;11.20;99.90;;;10.10;94.93;97721.63;5004162;28;20449;-68
2022/06/01 03:35:15;;;;;;;12.03;11.00;;;11.20;99.90;;;10.07;94.42;97723.72;5020471;28;20486;-72
2022/06/01 03:37:42;;;;;;;12.00;10.90;;;11.20;99.90;;;10.09;95.00;97723.50;5006784;28;20513;-68
2022/06/01 03:40:12;;;;;;;12.53;11.47;;;11.20;99.90;;;10.07;95.43;97734.53;5000167;28;20529;-68
2022/06/01 03:42:39;;;;;;;13.20;11.57;;;11.20;99.90;;;10.04;94.51;97728.72;5003311;28;20973;-74
2022/06/01 03:47:55;;;;;;;12.00;10.80;;;11.10;99.90;;;9.95;95.53;97727.34;5016424;28;20621;-70
2022/06/01 03:50:24;;;;;;;11.30;10.13;;;11.10;99.90;;;9.94;94.61;97728.41;5021899;28;20455;-73
2022/06/01 03:52:52;;;;;;;11.97;10.97;;;11.10;99.90;;;9.82;95.58;97736.34;5014315;28;20466;-76
2022/06/01 03:55:20;;;;;;;12.47;11.33;;;11.00;99.90;;;9.88;94.79;97736.31;5019085;28;20454;-76
2022/06/01 03:57:49;;;;;;;11.47;10.50;;;11.00;99.90;;;9.79;94.97;97737.63;4993292;28;20478;-73
2022/06/01 04:00:22;;;;;;;12.20;11.30;;;10.90;99.90;;;9.75;95.39;97731.84;5021468;28;20989;-69
2022/06/01 04:02:50;;;;;;;12.30;11.23;;;10.90;99.90;;;9.76;95.41;97735.34;5026105;28;20548;-70
2022/06/01 04:05:19;;;;;;;12.70;11.40;;;10.90;99.90;;;9.73;94.80;97738.47;4990383;28;20440;-71
2022/06/01 04:07:47;;;;;;;12.77;11.20;;;10.90;99.90;;;9.97;93.90;97744.16;5020497;28;21038;-70
2022/06/01 04:10:14;;;;;;;11.80;10.63;;;11.10;99.90;;;10.58;90.81;97741.81;5024266;28;20457;-70
2022/06/01 04:12:42;;;;;;;14.27;10.40;;;11.70;95.30;;;11.17;87.41;97742.22;5026417;28;20468;-79
2022/06/01 04:15:10;;;;;;;10.60;9.60;;;12.30;92.50;;;11.82;83.80;97729.13;5026534;28;20482;-69
2022/06/01 04:17:37;;;;;;;10.63;9.83;;;13.10;88.80;;;12.86;78.34;97734.34;5020420;28;20552;-71
2022/06/01 04:20:07;;;;;;;9.40;8.70;;;14.10;84.70;;;13.92;73.27;97740.53;5021657;28;20963;-72
2022/06/01 04:22:39;;;;;;;8.60;7.90;;;15.00;81.50;;;14.05;71.96;97742.13;5016919;28;20574;-72
2022/06/01 04:25:09;;;;;;;8.87;8.10;;;15.60;79.60;;;12.89;75.51;97750.13;5020438;28;20448;-73
2022/06/01 04:27:36;;;;;;;9.10;8.50;;;14.90;79.60;;;12.58;77.72;97757.56;5022032;28;20801;-72
2022/06/01 04:30:04;;;;;;;10.90;9.80;;;14.30;81.20;;;12.63;77.05;97751.44;5010800;28;20447;-69
2022/06/01 04:32:32;;;;;;;10.07;9.27;;;14.40;81.00;;;13.03;75.25;97739.84;5003207;28;21259;-67
2022/06/01 04:34:59;;;;;;;10.27;8.30;;;14.60;80.60;;;13.44;74.49;97739.91;5010653;28;20982;-76
2022/06/01 04:37:27;;;;;;;8.93;8.20;;;14.90;80.20;;;13.42;74.47;97750.13;5025692;28;20549;-71
2022/06/01 04:39:56;;;;;;;9.60;8.80;;;15.00;79.90;;;13.74;72.22;97744.28;5020009;28;20885;-73
2022/06/01 04:42:23;;;;;;;9.57;8.67;;;15.40;78.60;;;13.26;73.56;97749.81;5009464;28;20555;-75
2022/06/01 04:44:51;;;;;;;9.87;8.90;;;15.00;78.70;;;13.02;74.89;97749.88;5028903;28;20502;-73
2022/06/01 04:47:19;;;;;;;9.20;8.50;;;14.60;79.80;;;13.49;73.30;97731.88;5024288;28;21130;-76
2022/06/01 04:49:47;;;;;;;9.80;8.57;;;15.00;79.40;;;13.46;73.17;97740.50;5007020;28;20447;-75
2022/06/01 04:52:15;;;;;;;9.03;8.30;;;15.10;78.70;;;14.38;70.39;97743.22;5003645;28;20687;-83
2022/06/01 04:54:42;;;;;;;9.83;8.93;;;15.60;78.20;;;14.96;67.90;97740.31;5011418;28;20457;-75
2022/06/01 04:57:11;;;;;;;8.97;8.27;;;16.30;76.70;;;15.00;66.86;97744.16;5032624;28;20470;-78
2022/06/01 04:59:38;;;;;;;9.40;8.43;;;16.70;75.20;;;14.44;68.89;97736.78;5026234;28;21253;-74
2022/06/01 05:02:06;;;;;;;9.03;8.17;;;16.40;75.00;;;15.25;67.16;97737.44;5025170;28;20496;-75
2022/06/01 05:04:34;;;;;;;8.40;7.80;;;16.70;75.00;;;15.44;64.80;97715.31;5007418;28;20572;-75
2022/06/01 05:07:02;;;;;;;8.67;8.00;;;17.20;73.30;;;16.01;63.55;97743.19;5008575;28;20560;-75
2022/06/01 05:09:29;;;;;;;8.23;7.37;;;17.60;72.20;;;15.87;63.62;97740.00;5008446;28;21042;-73
2022/06/01 05:11:57;;;;;;;8.57;7.97;;;18.00;71.00;;;17.22;59.93;97725.53;5004977;28;20458;-75
2022/06/01 05:14:26;;;;;;;10.60;6.83;;;18.50;70.10;;;16.96;59.48;97711.72;5007014;28;20541;-79
2022/06/01 05:16:59;;;;;;;7.73;6.93;;;18.80;68.40;;;17.18;59.40;97731.78;5024867;28;20468;-76
2022/06/01 05:19:27;;;;;;;7.27;6.77;;;18.80;68.40;;;17.17;59.06;97724.69;5021282;28;20539;-76
2022/06/01 05:21:54;;;;;;;11.93;6.93;;;19.00;67.20;;;17.32;58.03;97729.38;5005300;28;20468;-77
2022/06/01 05:24:21;;;;;;;7.97;7.43;;;19.00;66.50;;;16.56;60.61;97737.63;5027979;28;20493;-82
2022/06/01 05:26:48;;;;;;;8.00;7.10;;;18.50;66.80;;;16.34;61.51;97732.28;5024539;28;20523;-76
2022/06/01 05:29:15;;;;;;;7.70;7.00;;;18.10;68.40;;;17.44;58.83;97731.88;5007643;28;20521;-81
2022/06/01 05:31:44;;;;;;;7.37;6.73;;;18.50;67.70;;;16.99;58.89;97711.22;5020325;28;20577;-79
2022/06/01 05:34:12;;;;;;;8.00;7.20;;;18.90;66.30;;;16.79;59.08;97741.09;5008209;28;20549;-81
2022/06/01 05:36:39;;;;;;;8.57;7.80;;;18.70;66.30;;;15.80;62.46;97737.50;5021814;28;20465;-81
2022/06/01 05:39:06;;;;;;;7.70;7.00;;;17.60;67.80;;;15.01;65.47;97734.94;5006223;28;20537;-83
2022/06/01 05:41:33;;;;;;;7.83;7.07;;;16.70;69.80;;;15.22;65.78;97737.91;5032394;28;20478;-76
2022/06/01 05:44:00;;;;;;;9.00;7.67;;;16.50;71.50;;;15.35;65.18;97739.44;5042683;28;20469;-74
2022/06/01 05:46:27;;;;;;;15.83;7.43;;;16.60;71.30;;;16.08;62.79;97741.06;5039168;28;20587;-79
2022/06/01 05:48:57;;;;;;;8.37;7.77;;;17.10;70.90;;;15.53;64.26;97724.66;5008929;28;20573;-81
2022/06/01 05:51:24;;;;;;;8.77;7.87;;;16.90;70.90;;;14.71;67.08;97748.91;5003564;28;20458;-80
2022/06/01 05:53:51;;;;;;;7.67;6.93;;;16.10;72.00;;;15.12;66.14;97751.41;5021348;28;20484;-85
2022/06/01 05:56:18;;;;;;;9.60;7.07;;;16.10;72.90;;;15.15;65.73;97742.72;5017523;28;21040;-76
2022/06/01 05:58:47;;;;;;;7.60;7.10;;;16.30;72.40;;;15.33;65.61;97736.16;5020812;28;20547;-75
2022/06/01 06:01:16;;;;;;;7.83;7.23;;;16.50;72.80;;;15.27;64.26;97699.91;5001319;28;21006;-75
2022/06/01 06:03:44;;;;;;;9.60;8.60;;;16.80;71.80;;;15.28;65.20;97750.53;5022054;28;20490;-77
2022/06/01 06:06:20;;;;;;;8.40;7.43;;;16.60;71.90;;;15.67;64.26;97748.78;5015570;28;20473;-76
2022/06/01 06:08:51;;;;;;;8.43;7.73;;;16.70;72.00;;;16.59;61.23;97745.28;5004973;28;20553;-77
2022/06/01 06:11:20;;;;;;;7.80;7.17;;;17.90;70.30;;;18.60;55.49;97749.88;5024168;28;20968;-77
2022/06/01 06:13:47;;;;;;;8.20;7.50;;;19.60;66.90;;;19.17;53.21;97727.06;5029352;28;20458;-77
2022/06/01 06:16:16;;;;;;;6.80;6.20;;;20.70;64.40;;;19.67;52.32;97741.63;5007109;28;20451;-78
2022/06/01 06:18:44;;;;;;;6.10;5.63;;;21.40;62.40;;;20.90;49.00;97745.72;5023843;28;20570;-78
2022/06/01 06:21:13;;;;;;;6.63;6.13;;;22.20;60.80;;;19.37;51.46;97743.41;5021054;28;20508;-77
2022/06/01 06:23:41;;;;;;;6.93;6.43;;;21.80;59.20;;;18.44;54.59;97750.97;5021654;28;20505;-75
2022/06/01 06:26:08;;;;;;;7.23;6.43;;;20.60;60.30;;;17.64;56.80;97751.06;4997953;28;20541;-76
2022/06/01 06:28:36;;;;;;;6.80;6.10;;;19.40;61.90;;;17.74;56.72;97747.56;5021163;28;20509;-75
2022/06/01 06:31:04;;;;;;;7.17;6.57;;;19.00;63.80;;;17.94;56.87;97754.16;5018237;28;20554;-74
2022/06/01 06:33:31;;;;;;;8.50;7.70;;;19.00;64.70;;;17.54;57.50;97751.03;5005404;28;20940;-76
2022/06/01 06:36:01;;;;;;;6.60;5.47;;;18.70;64.60;;;17.72;56.91;97757.94;5019999;28;20494;-78
2022/06/01 06:38:33;;;;;;;7.83;6.80;;;18.60;64.60;;;17.20;58.62;97759.63;5027206;28;20553;-76
2022/06/01 06:41:01;;;;;;;7.37;6.70;;;18.30;65.10;;;17.04;58.67;97750.53;4998317;28;20532;-77
2022/06/01 06:43:31;;;;;;;7.07;6.47;;;18.20;65.30;;;17.05;58.76;97749.44;5019002;28;20456;-80
2022/06/01 06:46:01;;;;;;;6.03;5.50;;;18.20;65.60;;;17.39;57.68;97762.72;5004308;28;20447;-79
2022/06/01 06:48:29;;;;;;;6.60;6.10;;;18.30;65.00;;;17.40;57.36;97758.91;5024127;28;20486;-83
2022/06/01 06:50:56;;;;;;;6.47;5.87;;;18.40;64.70;;;17.87;55.51;97761.78;5015684;28;20820;-80
2022/06/01 06:53:23;;;;;;;6.17;5.57;;;18.70;64.00;;;17.69;56.06;97762.00;5008045;28;20477;-84
2022/06/01 06:55:52;;;;;;;6.43;5.83;;;18.60;64.00;;;17.41;57.11;97761.34;5000414;28;20461;-83
2022/06/01 06:58:20;;;;;;;6.10;5.60;;;18.40;64.40;;;17.38;57.83;97761.09;5029673;28;20462;-87
2022/06/01 07:00:48;;;;;;;7.80;5.77;;;18.40;64.80;;;17.12;57.85;97747.31;5008092;28;20486;-81
2022/06/01 07:03:16;;;;;;;6.87;6.23;;;18.30;64.50;;;17.51;57.47;97762.50;5019307;28;20537;-85
2022/06/01 07:08:44;;;;;;;6.30;5.70;;;18.40;64.50;;;17.56;57.29;97752.41;4947937;28;20473;-86
2022/06/01 07:11:14;;;;;;;8.73;6.80;;;18.60;64.70;;;17.09;58.56;97758.75;4990900;28;20454;-81
2022/06/01 07:13:41;;;;;;;6.87;6.37;;;18.20;65.10;;;17.63;57.46;97760.38;5026349;28;20496;-82
2022/06/01 07:16:12;;;;;;;7.03;6.43;;;18.40;65.40;;;17.34;58.31;97760.78;5034185;28;20532;-87
2022/06/01 07:18:41;;;;;;;6.10;5.70;;;18.40;65.50;;;16.98;59.43;97763.28;5033205;28;20470;-78
2022/06/01 07:21:09;;;;;;;6.53;5.93;;;18.10;65.80;;;17.24;58.65;97758.84;5042455;28;20477;-84
2022/06/01 07:23:38;;;;;;;6.43;5.83;;;18.20;65.70;;;17.47;58.29;97764.13;5033733;28;20455;-85
2022/06/01 07:26:09;;;;;;;7.73;5.77;;;18.40;65.90;;;17.58;57.25;97710.34;5013388;28;20457;-82
2022/06/01 07:28:38;;;;;;;6.10;5.53;;;18.60;65.70;;;18.38;56.45;97761.88;5014251;28;20958;-86
2022/06/01 07:31:06;;;;;;;7.23;5.43;;;19.00;65.50;;;18.32;55.74;97732.91;5028109;28;22590;-82
2022/06/01 07:33:35;;;;;;;6.60;6.10;;;19.20;65.00;;;18.07;57.11;97764.59;5030415;28;20458;-86
2022/06/01 07:36:08;;;;;;;6.27;5.67;;;19.20;65.10;;;17.97;57.48;97756.38;5027942;28;20543;-84
2022/06/01 07:44:11;;;;;;;6.20;5.17;;;19.00;65.50;;;18.18;57.01;97756.41;5028018;28;20455;-82
2022/06/01 07:46:39;;;;;;;5.80;5.30;;;19.10;65.40;;;18.17;56.53;97749.31;5009828;28;20482;-84
2022/06/01 07:49:07;;;;;;;5.40;4.90;;;19.10;65.00;;;17.96;57.74;97760.16;5028541;28;20465;-84
2022/06/01 07:51:34;;;;;;;7.83;5.47;;;19.00;65.40;;;18.20;56.37;97751.50;5022209;28;20466;-82
2022/06/01 07:54:02;;;;;;;7.03;5.13;;;19.10;65.10;;;18.48;55.28;97757.53;5028121;28;21108;-86
2022/06/01 07:56:29;;;;;;;5.97;5.33;;;19.30;64.20;;;18.48;55.28;97761.06;5013888;28;20527;-87
2022/06/01 07:58:57;;;;;;;4.90;4.50;;;19.50;63.90;;;18.60;55.08;97754.50;5007874;28;20954;-88
2022/06/01 08:01:26;;;;;;;6.57;5.30;;;19.50;63.80;;;18.62;54.70;97749.56;5032730;28;20481;-84
2022/06/01 08:03:56;;;;;;;5.97;4.57;;;19.50;63.50;;;18.90;53.07;97745.44;5016576;28;20468;-86
2022/06/01 08:06:23;;;;;;;5.00;4.60;;;19.60;62.30;;;18.72;51.08;97694.03;5027879;28;20511;-84
2022/06/01 08:08:52;;;;;;;5.20;4.50;;;19.90;61.00;;;18.97;50.94;97699.44;5010069;28;20455;-85
2022/06/01 08:11:19;;;;;;;6.13;4.67;;;20.10;60.70;;;19.62;49.90;97746.31;5031665;28;20446;-80
2022/06/01 08:13:46;;;;;;;5.30;4.83;;;20.30;60.20;;;19.91;49.51;97751.09;5027808;28;20454;-85
2022/06/01 08:16:16;;;;;;;5.20;4.30;;;20.60;59.90;;;19.33;48.57;97744.25;5019302;28;20473;-80
2022/06/01 08:18:44;;;;;;;4.13;2.87;;;20.50;58.00;;;19.40;42.05;97753.00;5044843;28;20478;-79
2022/06/01 08:21:11;;;;;;;2.90;2.50;;;20.30;52.80;;;19.31;41.38;97743.72;5043526;28;20463;-78
2022/06/01 08:23:38;;;;;;;4.37;2.53;;;20.30;51.10;;;19.47;41.79;97752.69;5021236;28;20467;-80
2022/06/01 08:26:05;;;;;;;3.33;2.60;;;20.30;51.50;;;19.58;40.37;97742.50;5014209;28;20519;-84
2022/06/01 08:28:33;;;;;;;2.30;2.20;;;20.50;51.10;;;19.81;39.21;97747.34;5011752;28;20458;-84
2022/06/01 08:31:00;;;;;;;2.37;2.13;;;20.60;49.80;;;19.90;37.39;97744.81;5009918;28;20518;-80
2022/06/01 08:33:27;;;;;;;2.20;2.07;;;20.70;47.80;;;20.13;36.76;97736.22;5018377;28;20462;-84
2022/06/01 08:35:56;;;;;;;2.70;1.70;;;20.90;47.60;;;19.76;36.12;97678.81;5002311;28;20482;-87
2022/06/01 08:38:23;;;;;;;2.53;1.83;;;20.90;46.20;;;20.22;36.31;97734.47;5025044;28;20458;-83
2022/06/01 08:40:54;;;;;;;5.43;2.03;;;21.10;46.60;;;20.16;35.32;97727.41;5017271;28;20454;-79
2022/06/01 08:43:28;;;;;;;4.77;1.40;;;21.10;45.50;;;19.74;32.87;97733.09;5028394;28;20511;-86
2022/06/01 08:46:00;;;;;;;3.90;1.50;;;20.80;42.80;;;20.46;32.89;97728.25;5029659;28;20544;-84
2022/06/01 08:48:33;;;;;;;1.70;1.60;;;21.10;43.60;;;21.15;32.64;97728.16;5012379;28;21068;-85
2022/06/01 08:51:03;;;;;;;2.93;1.93;;;21.70;43.80;;;21.18;34.68;97722.09;5006053;28;20520;-81
2022/06/01 08:53:31;;;;;;;3.00;2.20;;;22.00;45.20;;;21.06;33.86;97729.91;5029831;28;20454;-81
2022/06/01 08:56:09;;;;;;;4.60;2.07;;;21.90;44.30;;;20.33;33.24;97585.19;5029698;28;20506;-85
2022/06/01 08:58:47;;;;;;;1.50;1.37;;;22.10;44.00;;;21.29;32.28;97728.28;5028590;28;20452;-84
2022/06/01 09:01:26;;;;;;;3.20;1.97;;;22.00;43.30;;;21.91;31.53;97722.00;5005966;28;20542;-85
2022/06/01 09:04:10;;;;;;;3.60;1.77;;;22.50;43.00;;;22.11;31.34;97714.53;5008765;28;20464;-86
2022/06/01 09:06:45;;;;;;;4.83;1.73;;;22.90;42.70;;;22.07;31.70;97736.34;5025491;28;20524;-85
2022/06/01 09:09:21;;;;;;;3.00;2.40;;;22.80;42.80;;;21.89;31.25;97726.16;5024293;28;20486;-83
2022/06/01 09:11:49;;;;;;;4.20;2.00;;;22.80;41.90;;;21.65;31.44;97730.59;5017027;28;20454;-88
2022/06/01 09:14:24;;;;;;;2.40;1.83;;;22.50;41.70;;;21.63;31.38;97738.28;5033290;28;20454;-84
2022/06/01 09:16:55;;;;;;;1.70;1.50;;;22.50;41.80;;;20.97;31.82;97720.66;5027353;28;20463;-79
2022/06/01 09:19:27;;;;;;;3.40;1.80;;;22.10;41.40;;;21.12;32.04;97730.69;5034103;28;20451;-81
2022/06/01 09:24:45;;;;;;;2.00;1.87;;;22.10;42.00;;;21.49;32.10;97715.38;5003903;28;20516;-83
2022/06/01 09:27:14;;;;;;;2.30;1.93;;;22.30;42.40;;;21.69;32.37;97730.81;5032923;28;21122;-86
2022/06/01 09:29:47;;;;;;;4.70;1.77;;;22.40;42.70;;;21.81;32.35;97743.31;5033190;28;20469;-86
2022/06/01 09:32:29;;;;;;;2.20;1.60;;;22.50;42.50;;;21.22;33.35;97739.63;5033100;28;20441;-82
2022/06/01 09:35:00;;;;;;;1.67;1.57;;;22.20;42.70;;;21.34;33.08;97746.63;5015313;28;20477;-82
2022/06/01 09:37:33;;;;;;;3.67;1.90;;;22.20;42.80;;;20.93;33.28;97743.22;5027498;28;20473;-86
2022/06/01 09:40:04;;;;;;;2.67;2.33;;;21.90;42.40;;;21.24;33.13;97753.06;5024238;28;20477;-84
2022/06/01 09:42:38;;;;;;;2.67;2.20;;;22.10;42.60;;;21.37;32.36;97735.06;5010707;28;20879;-84
2022/06/01 09:45:15;;;;;;;2.23;1.97;;;22.20;42.10;;;21.03;32.74;97745.03;5015067;28;20521;-85
2022/06/01 09:47:44;;;;;;;2.30;1.90;;;22.00;42.10;;;20.58;33.56;97704.00;5016307;28;20457;-87
2022/06/01 09:50:27;;;;;;;2.03;1.93;;;21.60;42.60;;;20.70;34.28;97752.19;5024710;28;20541;-85
2022/06/01 09:53:01;;;;;;;2.50;1.97;;;21.50;42.70;;;20.64;34.51;97741.28;5034677;28;20508;-83
2022/06/01 09:55:32;;;;;;;2.80;1.80;;;21.50;43.00;;;20.41;34.56;97742.03;5035994;28;20455;-84
2022/06/01 09:58:08;;;;;;;2.37;2.10;;;21.30;42.60;;;20.34;35.51;97732.19;5017798;28;20462;-83
2022/06/01 10:06:25;;;;;;;2.63;1.40;;;21.30;41.80;;;20.48;33.33;97748.00;5004632;28;20447;-84
2022/06/01 10:09:01;;;;;;;3.07;1.83;;;21.20;42.10;;;20.70;32.78;97743.94;5035217;28;20480;-83
2022/06/01 10:11:33;;;;;;;1.93;1.83;;;21.50;41.90;;;21.00;32.92;97748.38;5024911;28;20458;-84
2022/06/01 10:14:16;;;;;;;2.47;1.73;;;21.60;42.10;;;21.46;32.97;97749.78;5038320;28;20483;-81
2022/06/01 10:17:04;;;;;;;3.27;1.97;;;22.00;42.30;;;21.44;33.22;97734.69;5040284;28;20552;-79
2022/06/01 10:19:37;;;;;;;2.33;1.80;;;22.30;42.30;;;21.13;32.91;97746.84;5029849;28;20973;-84
2022/06/01 10:22:15;;;;;;;3.20;1.87;;;22.10;42.00;;;21.44;33.25;97740.19;5018623;28;20470;-82
2022/06/01 10:24:51;;;;;;;1.93;1.83;;;22.20;42.40;;;21.37;33.02;97735.84;5030040;28;20467;-83
2022/06/01 10:27:25;;;;;;;2.30;1.63;;;22.20;42.40;;;21.77;32.28;97735.69;5015773;28;20515;-81
2022/06/01 10:30:08;;;;;;;3.80;1.53;;;22.40;42.10;;;21.48;31.09;97725.56;5029902;28;20539;-82
2022/06/01 10:32:47;;;;;;;3.13;1.70;;;22.40;40.90;;;21.46;31.90;97722.31;5008986;28;20940;-79
2022/06/01 10:35:26;;;;;;;2.87;1.50;;;22.40;41.50;;;20.88;32.28;97734.22;5013218;28;20471;-79
2022/06/01 10:38:04;;;;;;;1.80;1.70;;;21.90;41.10;;;20.75;32.44;97735.69;5031812;28;20457;-82
2022/06/01 10:40:41;;;;;;;3.53;2.00;;;21.60;41.20;;;20.88;32.36;97735.03;5019144;28;21396;-77
2022/06/01 10:43:21;;;;;;;2.67;2.00;;;21.60;41.20;;;21.16;32.21;97729.81;5029187;28;20545;-78
2022/06/01 10:45:52;;;;;;;1.93;1.50;;;21.90;41.40;;;21.44;32.59;97743.75;5025187;28;20464;-80
2022/06/01 10:48:26;;;;;;;3.20;1.60;;;22.10;41.90;;;21.32;32.15;97735.94;5029113;28;20961;-78
2022/06/01 10:51:04;;;;;;;2.10;1.47;;;22.10;41.70;;;21.69;32.07;97730.81;5025267;28;20551;-83
2022/06/01 10:53:43;;;;;;;4.20;1.80;;;22.40;41.70;;;22.29;31.72;97721.16;5016657;28;20494;-83
2022/06/01 10:56:13;;;;;;;1.50;1.33;;;22.80;42.00;;;22.83;30.27;97723.59;5026549;28;20490;-83